Time;durP1;ratioP1;P1;durP2;ratioP2;P2;SDS_P1;SDS_P2;PMS_P1;PMS_P2;Temp;Humidity;BMP_temperature;BMP_pressure;BME280_temperature;BME280_humidity;BME280_pressure;Samples;Min_cycle;Max_cycle;Signal;HPM_P1;HPM_P2
2022/06/18 00:01:37;;;;;;;1.88;1.48;;;15.50;92.20;;;;;;4907272;29;20072;-90
2022/06/18 00:04:10;;;;;;;2.22;1.50;;;15.50;92.20;;;;;;4920359;29;20028;-88
2022/06/18 00:06:56;;;;;;;2.50;1.65;;;15.40;92.60;;;;;;4930498;29;20043;-88
2022/06/18 00:09:38;;;;;;;6.25;1.90;;;15.40;93.50;;;;;;4889586;29;20051;-90
2022/06/18 00:15:24;;;;;;;2.00;1.52;;;15.40;94.40;;;;;;4901375;29;20093;-89
2022/06/18 00:17:50;;;;;;;2.95;1.70;;;15.30;95.00;;;;;;4906828;29;20033;-90
2022/06/18 00:20:18;;;;;;;1.58;1.40;;;15.30;95.80;;;;;;4911769;29;20059;-89
2022/06/18 00:22:48;;;;;;;1.55;1.45;;;15.30;96.10;;;;;;4903678;29;20017;-90
2022/06/18 00:25:25;;;;;;;3.38;2.17;;;15.20;96.60;;;;;;4904211;29;20036;-89
2022/06/18 00:27:51;;;;;;;1.95;1.50;;;15.20;97.30;;;;;;4894828;29;20025;-90
2022/06/18 00:30:20;;;;;;;1.58;1.48;;;15.10;98.30;;;;;;4897622;29;20084;-89
2022/06/18 00:32:49;;;;;;;3.45;1.70;;;15.10;99.60;;;;;;4910060;29;20024;-89
2022/06/18 00:35:15;;;;;;;3.03;1.70;;;15.00;99.90;;;;;;4917531;29;20120;-89
2022/06/18 00:37:42;;;;;;;2.47;1.70;;;15.00;99.90;;;;;;4909875;29;20032;-90
2022/06/18 00:40:21;;;;;;;2.05;1.50;;;14.90;99.90;;;;;;4907347;29;20033;-89
2022/06/18 00:42:49;;;;;;;1.95;1.63;;;14.80;99.90;;;;;;4917591;29;20040;-89
2022/06/18 00:45:21;;;;;;;2.78;1.58;;;14.70;99.90;;;;;;4916188;29;20038;-90
2022/06/18 00:47:58;;;;;;;4.93;1.80;;;14.70;99.90;;;;;;4903931;29;20066;-89
2022/06/18 00:50:42;;;;;;;1.85;1.75;;;14.60;99.90;;;;;;4922401;29;20123;-89
2022/06/18 00:53:16;;;;;;;1.70;1.50;;;14.50;99.90;;;;;;4920042;29;20035;-89
2022/06/18 00:55:48;;;;;;;2.65;1.80;;;14.40;99.90;;;;;;4923361;29;20047;-89
2022/06/18 00:58:20;;;;;;;3.50;1.80;;;14.30;99.90;;;;;;4921727;29;20028;-89
2022/06/18 01:00:48;;;;;;;2.95;1.90;;;14.30;99.90;;;;;;4924738;29;20509;-89
2022/06/18 01:03:27;;;;;;;3.92;1.88;;;14.30;99.90;;;;;;4922591;29;20082;-89
2022/06/18 01:05:55;;;;;;;1.83;1.48;;;14.30;99.90;;;;;;4919229;29;20044;-90
2022/06/18 01:08:24;;;;;;;2.45;2.00;;;14.20;99.90;;;;;;4921723;29;20494;-89
2022/06/18 01:11:13;;;;;;;3.50;1.55;;;14.30;99.90;;;;;;4920013;29;20042;-90
2022/06/18 01:13:40;;;;;;;3.40;2.05;;;14.30;99.90;;;;;;4904007;29;20048;-89
2022/06/18 01:16:08;;;;;;;2.67;2.45;;;14.20;99.90;;;;;;4916968;29;20031;-89
2022/06/18 01:18:34;;;;;;;2.83;2.28;;;14.20;99.90;;;;;;4904321;29;20034;-89
2022/06/18 01:21:05;;;;;;;3.15;2.08;;;14.20;99.90;;;;;;4919836;29;20032;-88
2022/06/18 01:23:42;;;;;;;2.45;2.25;;;14.20;99.90;;;;;;4925054;29;20028;-90
2022/06/18 01:26:10;;;;;;;2.50;2.10;;;14.20;99.90;;;;;;4920666;29;20563;-90
2022/06/18 01:28:36;;;;;;;2.42;1.90;;;14.20;99.90;;;;;;4916699;29;20039;-89
2022/06/18 01:31:02;;;;;;;2.85;2.20;;;14.20;99.90;;;;;;4922135;29;20032;-89
2022/06/18 01:33:28;;;;;;;2.33;2.10;;;14.20;99.90;;;;;;4898057;29;20040;-88
2022/06/18 01:35:55;;;;;;;2.55;2.10;;;14.20;99.90;;;;;;4893054;29;20032;-88
2022/06/18 01:38:24;;;;;;;3.05;2.75;;;14.20;99.90;;;;;;4901399;29;20035;-89
2022/06/18 01:44:08;;;;;;;4.05;2.00;;;14.10;99.90;;;;;;4914382;29;20048;-89
2022/06/18 01:46:35;;;;;;;3.70;2.25;;;14.00;99.90;;;;;;4899889;29;20095;-89
2022/06/18 01:49:06;;;;;;;7.30;2.08;;;13.90;99.90;;;;;;4916971;29;20437;-89
2022/06/18 01:51:35;;;;;;;4.60;2.40;;;13.90;99.90;;;;;;4904145;29;20039;-89
2022/06/18 01:54:10;;;;;;;8.40;2.40;;;13.80;99.90;;;;;;4906982;29;20028;-89
2022/06/18 01:56:49;;;;;;;2.88;1.92;;;13.80;99.90;;;;;;4919467;29;20039;-89
2022/06/18 01:59:25;;;;;;;3.45;2.80;;;13.80;99.90;;;;;;4911399;29;20017;-89
2022/06/18 02:01:52;;;;;;;3.70;2.08;;;13.80;99.90;;;;;;4890581;29;20076;-88
2022/06/18 02:04:20;;;;;;;2.42;1.90;;;13.70;99.90;;;;;;4881365;29;20508;-89
2022/06/18 02:06:48;;;;;;;2.40;1.90;;;13.60;99.90;;;;;;4884505;29;20043;-89
2022/06/18 02:09:26;;;;;;;2.72;2.10;;;13.50;99.90;;;;;;4915719;29;20110;-89
2022/06/18 02:11:55;;;;;;;7.35;1.80;;;13.50;99.90;;;;;;4915152;29;20052;-89
2022/06/18 02:14:23;;;;;;;2.13;2.00;;;13.40;99.90;;;;;;4923649;29;20516;-90
2022/06/18 02:16:51;;;;;;;2.97;2.67;;;13.30;99.90;;;;;;4903350;29;20131;-89
2022/06/18 02:19:18;;;;;;;2.50;2.28;;;13.30;99.90;;;;;;4925394;29;20036;-89
2022/06/18 02:21:48;;;;;;;2.83;2.60;;;13.30;99.90;;;;;;4917853;29;20521;-90
2022/06/18 02:24:16;;;;;;;4.15;2.75;;;13.20;99.90;;;;;;4903179;29;20032;-89
2022/06/18 02:26:43;;;;;;;6.60;2.25;;;13.20;99.90;;;;;;4926522;29;20047;-90
2022/06/18 02:29:34;;;;;;;2.45;2.25;;;13.20;99.90;;;;;;4914561;29;20024;-90
2022/06/18 02:32:04;;;;;;;2.60;2.25;;;13.20;99.90;;;;;;4901896;29;20452;-90
2022/06/18 02:34:33;;;;;;;2.72;2.53;;;13.30;99.90;;;;;;4913003;29;20020;-90
2022/06/18 02:37:13;;;;;;;2.95;2.53;;;13.40;99.90;;;;;;4918303;29;20069;-89
2022/06/18 02:39:51;;;;;;;2.92;2.08;;;13.40;99.90;;;;;;4920523;29;20036;-90
2022/06/18 02:42:17;;;;;;;2.60;2.40;;;13.40;99.90;;;;;;4914627;29;20168;-90
2022/06/18 02:44:44;;;;;;;3.03;2.72;;;13.50;99.90;;;;;;4902891;29;20477;-90
2022/06/18 02:47:12;;;;;;;2.35;2.15;;;13.50;99.90;;;;;;4932325;29;20083;-90
2022/06/18 02:49:52;;;;;;;2.83;2.63;;;13.50;99.90;;;;;;4919273;29;20035;-90
2022/06/18 02:52:19;;;;;;;3.13;2.80;;;13.50;99.90;;;;;;4899217;29;20547;-90
2022/06/18 02:54:47;;;;;;;3.38;2.80;;;13.50;99.90;;;;;;4900615;29;20036;-90
2022/06/18 02:57:23;;;;;;;2.65;2.40;;;13.50;99.90;;;;;;4912791;29;20028;-90
2022/06/18 02:59:49;;;;;;;2.97;2.70;;;13.60;99.90;;;;;;4899401;29;20054;-90
2022/06/18 03:02:15;;;;;;;3.55;2.67;;;13.60;99.90;;;;;;4898796;29;20485;-90
2022/06/18 03:04:40;;;;;;;3.75;2.65;;;13.60;99.90;;;;;;4924178;29;20036;-90
2022/06/18 03:07:06;;;;;;;2.55;2.08;;;13.60;99.90;;;;;;4899113;29;20025;-89
2022/06/18 03:12:06;;;;;;;3.13;2.30;;;13.60;99.90;;;;;;4886468;29;20032;-90
2022/06/18 03:12:17;;;;;;;2.92;2.72;;;13.60;99.90;;;;;;4924930;29;20056;-89
2022/06/18 03:14:43;;;;;;;3.85;2.60;;;13.60;99.90;;;;;;4910885;29;20067;-90
2022/06/18 03:17:09;;;;;;;2.85;2.53;;;13.60;99.90;;;;;;4914825;29;20032;-89
2022/06/18 03:19:54;;;;;;;2.90;2.55;;;13.60;99.90;;;;;;4896138;29;20417;-90
2022/06/18 03:22:21;;;;;;;5.90;2.47;;;13.60;99.90;;;;;;4886510;29;20033;-89
2022/06/18 03:24:47;;;;;;;2.63;2.30;;;13.60;99.90;;;;;;4897817;29;20048;-89
2022/06/18 03:27:15;;;;;;;3.78;3.08;;;13.60;99.90;;;;;;4906814;29;20036;-89
2022/06/18 03:29:41;;;;;;;8.93;3.08;;;13.60;99.90;;;;;;4918009;29;20063;-90
2022/06/18 03:32:07;;;;;;;2.90;1.85;;;13.70;99.90;;;;;;4910218;29;20031;-89
2022/06/18 03:34:33;;;;;;;2.60;1.95;;;13.70;99.90;;;;;;4914461;29;20030;-89
2022/06/18 03:36:59;;;;;;;2.40;1.90;;;13.60;99.90;;;;;;4904820;29;20040;-89
2022/06/18 03:39:25;;;;;;;3.28;2.33;;;13.60;99.90;;;;;;4903625;29;20569;-89
2022/06/18 03:41:51;;;;;;;2.65;2.15;;;13.50;99.90;;;;;;4910351;29;20044;-90
2022/06/18 03:44:17;;;;;;;3.08;2.17;;;13.40;99.90;;;;;;4908138;29;20110;-90
2022/06/18 03:46:44;;;;;;;3.05;2.20;;;13.40;99.90;;;;;;4899962;29;20474;-89
2022/06/18 03:49:28;;;;;;;2.50;2.30;;;13.40;99.90;;;;;;4905310;29;20168;-89
2022/06/18 03:51:56;;;;;;;2.55;2.35;;;13.30;99.90;;;;;;4924893;29;20059;-90
2022/06/18 03:54:22;;;;;;;2.75;2.20;;;13.30;99.90;;;;;;4922068;29;20035;-90
2022/06/18 03:56:48;;;;;;;3.05;2.75;;;13.30;99.90;;;;;;4897993;29;20036;-90
2022/06/18 03:59:15;;;;;;;3.67;2.83;;;13.40;99.90;;;;;;4917066;29;20097;-90
2022/06/18 04:01:40;;;;;;;3.70;2.50;;;13.40;99.90;;;;;;4907933;29;20028;-90
2022/06/18 04:04:08;;;;;;;2.45;2.15;;;13.50;99.90;;;;;;4905537;29;20529;-90
2022/06/18 04:06:34;;;;;;;4.32;2.72;;;13.60;99.90;;;;;;4904404;29;20477;-90
2022/06/18 04:09:00;;;;;;;4.50;2.70;;;13.60;99.90;;;;;;4901896;29;20032;-89
2022/06/18 04:11:26;;;;;;;2.75;2.53;;;13.70;99.90;;;;;;4913084;29;20059;-90
2022/06/18 04:13:51;;;;;;;2.78;2.58;;;13.80;99.90;;;;;;4894610;29;20039;-90
2022/06/18 04:16:17;;;;;;;3.85;2.85;;;13.90;99.90;;;;;;4903514;29;20036;-90
2022/06/18 04:18:46;;;;;;;2.55;2.35;;;14.00;99.90;;;;;;4914444;29;20123;-90
2022/06/18 04:21:12;;;;;;;4.38;2.70;;;14.00;99.90;;;;;;4917435;29;20429;-88
2022/06/18 04:23:38;;;;;;;2.58;2.38;;;14.20;99.90;;;;;;4920200;29;20041;-88
2022/06/18 04:26:05;;;;;;;3.30;3.00;;;14.20;99.90;;;;;;4928330;29;20050;-89
2022/06/18 04:28:31;;;;;;;6.05;3.22;;;14.30;99.90;;;;;;4902082;29;20115;-89
2022/06/18 04:30:57;;;;;;;2.55;2.20;;;14.40;99.90;;;;;;4919562;29;20120;-89
2022/06/18 04:33:22;;;;;;;8.10;3.13;;;14.50;99.90;;;;;;4887078;29;20493;-89
2022/06/18 04:35:53;;;;;;;3.15;2.85;;;14.60;99.90;;;;;;4915113;29;20024;-89
2022/06/18 04:38:20;;;;;;;3.88;2.78;;;14.70;99.90;;;;;;4892061;29;20025;-89
2022/06/18 04:40:46;;;;;;;4.28;2.90;;;14.80;99.90;;;;;;4914103;29;20032;-89
2022/06/18 04:43:12;;;;;;;2.80;2.30;;;14.90;99.90;;;;;;4903909;29;20489;-89
2022/06/18 04:45:37;;;;;;;3.25;2.83;;;14.90;99.90;;;;;;4915172;29;20036;-89
2022/06/18 04:48:04;;;;;;;3.80;2.40;;;15.00;99.90;;;;;;4902469;29;20037;-89
2022/06/18 04:50:35;;;;;;;3.75;2.80;;;15.10;99.90;;;;;;4909059;29;20059;-89
2022/06/18 04:53:01;;;;;;;7.63;2.70;;;15.30;99.90;;;;;;4906934;29;20115;-89
2022/06/18 04:55:27;;;;;;;3.75;3.22;;;15.40;99.90;;;;;;4889220;29;20025;-89
2022/06/18 04:57:53;;;;;;;2.60;2.40;;;15.50;99.90;;;;;;4909549;29;20044;-88
2022/06/18 05:00:19;;;;;;;2.90;2.60;;;15.80;99.90;;;;;;4899066;29;20149;-90
2022/06/18 05:02:45;;;;;;;5.13;2.80;;;16.00;99.90;;;;;;4905273;29;20492;-89
2022/06/18 05:05:21;;;;;;;3.13;2.75;;;16.30;99.90;;;;;;4921663;29;20110;-88
2022/06/18 05:07:47;;;;;;;3.00;2.70;;;16.60;99.90;;;;;;4905027;29;20028;-89
2022/06/18 05:10:13;;;;;;;3.65;2.78;;;16.80;99.90;;;;;;4925409;29;20139;-89
2022/06/18 05:12:39;;;;;;;3.35;2.83;;;17.10;99.90;;;;;;4904122;29;20042;-89
2022/06/18 05:15:07;;;;;;;4.43;2.90;;;17.80;99.90;;;;;;4900463;29;20033;-89
2022/06/18 05:17:34;;;;;;;2.65;2.20;;;19.00;99.30;;;;;;4906349;29;20095;-90
2022/06/18 05:20:00;;;;;;;4.30;3.00;;;20.40;95.80;;;;;;4921659;29;20111;-90
2022/06/18 05:22:27;;;;;;;3.17;2.47;;;21.70;91.00;;;;;;4894992;29;20024;-91
2022/06/18 05:24:54;;;;;;;2.47;2.28;;;22.80;82.20;;;;;;4917570;29;20040;-90
2022/06/18 05:27:26;;;;;;;4.55;2.42;;;24.10;72.10;;;;;;4921957;29;20125;-89
2022/06/18 05:29:53;;;;;;;5.68;3.08;;;25.00;66.50;;;;;;4914355;29;20032;-90
2022/06/18 05:32:18;;;;;;;5.30;2.22;;;25.70;65.10;;;;;;4908308;29;20625;-91
2022/06/18 05:34:44;;;;;;;8.55;2.30;;;26.20;60.30;;;;;;4923433;29;20118;-90
2022/06/18 05:37:17;;;;;;;9.93;2.60;;;26.80;59.80;;;;;;4900767;29;20036;-90
2022/06/18 05:39:42;;;;;;;4.47;2.40;;;27.40;57.10;;;;;;4902588;29;20128;-91
2022/06/18 05:42:08;;;;;;;15.48;2.17;;;27.70;55.50;;;;;;4898670;29;20127;-90
2022/06/18 05:44:35;;;;;;;4.97;2.00;;;27.80;55.00;;;;;;4924989;29;20055;-89
2022/06/18 05:47:01;;;;;;;3.92;1.90;;;28.10;54.70;;;;;;4916616;29;20048;-90
2022/06/18 05:49:27;;;;;;;5.55;2.08;;;28.80;53.80;;;;;;4907472;29;20013;-90
2022/06/18 05:51:52;;;;;;;6.85;1.83;;;29.40;51.40;;;;;;4900346;29;20144;-91
2022/06/18 05:54:18;;;;;;;2.45;1.75;;;29.80;51.30;;;;;;4911728;29;20131;-90
2022/06/18 05:56:44;;;;;;;2.42;1.80;;;30.40;49.70;;;;;;4900383;29;20405;-91
2022/06/18 05:59:11;;;;;;;3.58;1.92;;;30.70;49.00;;;;;;4914346;29;20048;-90
2022/06/18 06:01:36;;;;;;;2.45;1.55;;;31.10;47.50;;;;;;4922113;29;20030;-90
2022/06/18 06:04:03;;;;;;;1.60;1.30;;;30.50;47.10;;;;;;4913598;29;20527;-90
2022/06/18 06:06:29;;;;;;;3.45;1.50;;;31.40;46.90;;;;;;4903654;29;20562;-91
2022/06/18 06:08:55;;;;;;;2.47;1.58;;;32.00;46.10;;;;;;4922713;29;20126;-91
2022/06/18 06:11:29;;;;;;;2.75;1.60;;;32.30;44.30;;;;;;4904822;29;20059;-91
2022/06/18 06:14:00;;;;;;;6.72;1.35;;;32.10;44.60;;;;;;4909509;29;20062;-91
2022/06/18 06:16:28;;;;;;;17.80;2.47;;;32.10;44.30;;;;;;4881834;29;20468;-90
2022/06/18 06:18:53;;;;;;;2.70;1.30;;;32.00;44.30;;;;;;4919785;29;20040;-90
2022/06/18 06:21:19;;;;;;;1.83;1.27;;;32.10;45.20;;;;;;4911950;29;20521;-91
2022/06/18 06:23:45;;;;;;;1.77;1.38;;;32.80;44.60;;;;;;4904591;29;20038;-91
2022/06/18 06:26:27;;;;;;;3.10;1.80;;;32.40;44.70;;;;;;4926694;29;20020;-90
2022/06/18 06:28:54;;;;;;;1.60;1.30;;;32.90;45.40;;;;;;4917732;29;20028;-90
2022/06/18 06:31:19;;;;;;;2.55;1.77;;;33.20;44.20;;;;;;4916341;29;20046;-92
2022/06/18 06:33:45;;;;;;;1.35;1.10;;;33.40;45.30;;;;;;4903939;29;20493;-91
2022/06/18 06:36:12;;;;;;;3.42;1.30;;;33.30;43.50;;;;;;4907659;29;20043;-91
2022/06/18 06:38:39;;;;;;;1.15;1.05;;;33.40;44.10;;;;;;4903953;29;20064;-90
2022/06/18 06:41:25;;;;;;;3.40;1.40;;;33.90;44.90;;;;;;4917650;29;20044;-92
2022/06/18 06:43:51;;;;;;;3.45;1.20;;;34.20;41.50;;;;;;4924637;29;20028;-90
2022/06/18 06:46:17;;;;;;;1.63;1.10;;;34.00;41.50;;;;;;4919301;29;20493;-92
2022/06/18 06:48:44;;;;;;;1.95;1.05;;;34.20;42.40;;;;;;4922917;29;20032;-90
2022/06/18 06:51:25;;;;;;;1.73;1.13;;;34.60;41.10;;;;;;4914168;29;20112;-91
2022/06/18 06:53:51;;;;;;;1.08;0.90;;;35.00;41.00;;;;;;4887975;29;20084;-92
2022/06/18 06:59:04;;;;;;;1.50;1.20;;;34.50;40.50;;;;;;4912063;29;20050;-91
2022/06/18 07:01:30;;;;;;;1.65;1.10;;;34.30;42.70;;;;;;4911606;29;20118;-91
2022/06/18 07:03:55;;;;;;;0.90;0.80;;;35.00;41.90;;;;;;4913636;29;20038;-90
2022/06/18 07:06:21;;;;;;;1.80;0.95;;;35.90;40.80;;;;;;4916679;29;20040;-91
2022/06/18 07:08:47;;;;;;;1.23;0.80;;;36.10;39.90;;;;;;4920752;29;20269;-91
2022/06/18 07:11:14;;;;;;;0.80;0.80;;;36.20;37.70;;;;;;4909812;29;20032;-91
2022/06/18 07:13:40;;;;;;;0.80;0.80;;;36.00;38.50;;;;;;4917390;29;20086;-92
2022/06/18 07:16:09;;;;;;;1.63;0.77;;;36.60;38.30;;;;;;4901840;29;20112;-90
2022/06/18 07:18:36;;;;;;;2.80;0.95;;;36.40;38.30;;;;;;4920000;29;20062;-91
2022/06/18 07:21:04;;;;;;;0.80;0.80;;;36.30;38.00;;;;;;4927711;29;20047;-92
2022/06/18 07:23:31;;;;;;;1.50;0.82;;;35.90;38.60;;;;;;4910456;29;20029;-90
2022/06/18 07:25:57;;;;;;;0.98;0.80;;;36.80;37.80;;;;;;4912704;29;20044;-92
2022/06/18 07:28:23;;;;;;;2.03;1.00;;;37.00;38.80;;;;;;4915984;29;20055;-91
2022/06/18 07:30:49;;;;;;;1.30;1.10;;;38.00;37.40;;;;;;4918494;29;20060;-91
2022/06/18 07:33:19;;;;;;;1.70;0.95;;;38.10;37.10;;;;;;4919635;29;20040;-92
2022/06/18 07:35:45;;;;;;;2.55;0.80;;;39.10;35.50;;;;;;4903001;29;20620;-92
2022/06/18 07:38:10;;;;;;;2.83;0.80;;;39.60;33.80;;;;;;4912869;29;20103;-91
2022/06/18 07:40:48;;;;;;;0.98;0.65;;;39.20;33.30;;;;;;4912919;29;20370;-91
2022/06/18 07:43:36;;;;;;;6.03;0.80;;;38.70;34.30;;;;;;4909999;29;20039;-91
2022/06/18 07:46:03;;;;;;;2.33;0.90;;;39.30;34.00;;;;;;4904109;29;20396;-90
2022/06/18 07:48:30;;;;;;;2.00;0.90;;;39.10;33.80;;;;;;4909611;29;20095;-90
2022/06/18 07:50:55;;;;;;;5.25;0.98;;;39.60;33.80;;;;;;4908349;29;20055;-90
2022/06/18 07:53:24;;;;;;;1.33;0.90;;;39.90;33.70;;;;;;4903037;29;20032;-91
2022/06/18 07:55:50;;;;;;;0.93;0.70;;;39.80;34.00;;;;;;4899901;29;20039;-91
2022/06/18 07:58:17;;;;;;;1.00;0.90;;;40.40;33.60;;;;;;4914619;29;20059;-89
2022/06/18 08:00:43;;;;;;;1.30;0.73;;;40.30;32.30;;;;;;4906356;29;20037;-91
2022/06/18 08:03:11;;;;;;;1.67;0.80;;;40.70;33.70;;;;;;4918411;29;20037;-91
2022/06/18 08:05:38;;;;;;;1.35;0.70;;;41.00;33.80;;;;;;4908160;29;20039;-91
2022/06/18 08:08:04;;;;;;;1.08;0.88;;;41.00;31.80;;;;;;4914651;29;20038;-90
2022/06/18 08:10:32;;;;;;;1.05;0.63;;;41.00;31.80;;;;;;4909422;29;20599;-91
2022/06/18 08:12:57;;;;;;;1.02;0.90;;;41.80;33.00;;;;;;4899885;29;20090;-91
2022/06/18 08:15:23;;;;;;;1.33;0.80;;;42.30;32.70;;;;;;4895366;29;20111;-90
2022/06/18 08:17:49;;;;;;;5.13;0.60;;;42.40;32.20;;;;;;4908986;29;20396;-91
2022/06/18 08:20:14;;;;;;;1.13;0.80;;;42.60;32.20;;;;;;4893774;29;20517;-90
2022/06/18 08:22:43;;;;;;;0.82;0.50;;;43.00;29.90;;;;;;4903413;29;20024;-91
2022/06/18 08:25:11;;;;;;;0.85;0.60;;;43.80;29.80;;;;;;4896668;29;20048;-89
2022/06/18 08:27:37;;;;;;;0.70;0.70;;;44.30;29.70;;;;;;4914114;29;20151;-91
2022/06/18 08:30:05;;;;;;;0.85;0.70;;;45.20;28.20;;;;;;4918400;29;20583;-89
2022/06/18 08:32:30;;;;;;;1.52;0.75;;;45.00;28.00;;;;;;4916134;29;20403;-90
2022/06/18 08:34:56;;;;;;;1.65;0.70;;;44.40;27.30;;;;;;4902933;29;20024;-91
2022/06/18 08:37:22;;;;;;;2.72;0.80;;;44.50;28.80;;;;;;4911061;29;20029;-91
2022/06/18 08:39:49;;;;;;;1.58;0.82;;;44.30;28.70;;;;;;4915490;29;20131;-89
2022/06/18 08:42:29;;;;;;;1.50;0.63;;;43.30;29.10;;;;;;4913410;29;20060;-91
2022/06/18 08:45:16;;;;;;;1.60;0.73;;;43.20;29.40;;;;;;4918158;29;20515;-90
2022/06/18 08:48:03;;;;;;;1.42;0.63;;;42.20;29.30;;;;;;4922516;29;20036;-92
2022/06/18 08:51:10;;;;;;;1.13;0.60;;;42.80;29.50;;;;;;4887011;29;20037;-90
2022/06/18 08:53:53;;;;;;;0.73;0.60;;;43.70;29.40;;;;;;4883483;29;20058;-91
2022/06/18 08:56:34;;;;;;;2.53;0.80;;;44.20;28.90;;;;;;4922075;29;20040;-90
2022/06/18 08:59:34;;;;;;;0.98;0.40;;;44.50;28.10;;;;;;4921818;29;20032;-90
2022/06/18 09:02:27;;;;;;;0.93;0.40;;;44.90;28.00;;;;;;4893078;29;20025;-91
2022/06/18 09:05:13;;;;;;;1.35;0.47;;;45.90;26.20;;;;;;4915584;29;20028;-92
2022/06/18 09:07:38;;;;;;;2.33;0.50;;;45.70;26.60;;;;;;4907895;29;20411;-91
2022/06/18 09:10:23;;;;;;;1.52;0.57;;;46.20;26.30;;;;;;4890235;29;20024;-93
2022/06/18 09:13:17;;;;;;;1.48;0.50;;;46.80;25.70;;;;;;4916370;29;20041;-90
2022/06/18 09:15:53;;;;;;;1.98;0.50;;;46.20;27.20;;;;;;4913950;29;20413;-91
2022/06/18 09:18:28;;;;;;;1.83;0.60;;;45.00;27.50;;;;;;4920118;29;20401;-89
2022/06/18 09:20:58;;;;;;;1.52;0.55;;;44.50;27.70;;;;;;4932582;29;20028;-89
2022/06/18 09:23:30;;;;;;;0.73;0.40;;;44.50;27.00;;;;;;4915345;29;20032;-90
2022/06/18 09:25:59;;;;;;;0.30;0.30;;;45.10;26.90;;;;;;4897292;29;20038;-90
2022/06/18 09:28:30;;;;;;;0.43;0.30;;;45.80;25.80;;;;;;4900434;29;20027;-91
2022/06/18 09:31:06;;;;;;;1.35;0.50;;;46.70;24.90;;;;;;4920903;29;20066;-91
2022/06/18 09:33:41;;;;;;;1.48;0.60;;;47.80;24.30;;;;;;4901595;29;20059;-90
2022/06/18 09:36:10;;;;;;;1.90;0.40;;;48.60;23.90;;;;;;4905255;29;20032;-89
2022/06/18 09:38:43;;;;;;;1.40;0.40;;;49.20;23.60;;;;;;4915627;29;20120;-90
2022/06/18 09:41:16;;;;;;;3.70;0.43;;;49.10;24.10;;;;;;4889921;29;20038;-90
2022/06/18 09:44:07;;;;;;;1.60;0.40;;;48.40;24.70;;;;;;4890377;29;20024;-91
2022/06/18 09:46:54;;;;;;;0.95;0.50;;;49.00;23.60;;;;;;4909071;29;20515;-90
2022/06/18 09:49:20;;;;;;;1.38;0.38;;;48.60;24.20;;;;;;4922053;29;20024;-89
2022/06/18 09:54:34;;;;;;;0.30;0.30;;;48.50;24.10;;;;;;4924571;29;20038;-92
2022/06/18 09:57:00;;;;;;;2.10;0.50;;;49.20;23.60;;;;;;4925982;29;20036;-89
2022/06/18 10:00:05;;;;;;;2.60;0.50;;;49.30;24.10;;;;;;4904355;29;20034;-90
2022/06/18 10:02:32;;;;;;;2.10;0.40;;;49.20;23.70;;;;;;4888647;29;20572;-91
2022/06/18 10:07:49;;;;;;;2.08;0.60;;;49.70;23.10;;;;;;4920771;29;20047;-91
2022/06/18 10:10:21;;;;;;;4.43;0.70;;;49.00;23.50;;;;;;4920400;29;20032;-90
2022/06/18 10:12:53;;;;;;;2.08;0.40;;;48.50;23.80;;;;;;4901696;29;20036;-91
2022/06/18 10:15:20;;;;;;;2.60;0.60;;;48.00;24.50;;;;;;4915297;29;20028;-90
2022/06/18 10:18:08;;;;;;;2.15;0.57;;;47.30;24.50;;;;;;4908519;29;20035;-90
2022/06/18 10:20:54;;;;;;;0.75;0.30;;;46.20;24.90;;;;;;4914788;29;20103;-92
2022/06/18 10:23:58;;;;;;;2.50;0.50;;;46.20;25.20;;;;;;4897786;29;20122;-92
2022/06/18 10:26:39;;;;;;;2.53;0.50;;;45.90;24.80;;;;;;4917010;29;20147;-91
2022/06/18 10:29:07;;;;;;;2.25;0.60;;;46.00;25.60;;;;;;4909236;29;20580;-91
2022/06/18 10:31:44;;;;;;;5.18;0.75;;;46.30;25.30;;;;;;4892104;29;20036;-89
2022/06/18 10:34:16;;;;;;;3.63;0.90;;;46.80;25.10;;;;;;4901703;29;20028;-92
2022/06/18 10:37:12;;;;;;;1.38;0.68;;;47.00;24.70;;;;;;4895225;29;20043;-90
2022/06/18 10:39:37;;;;;;;2.45;0.60;;;47.00;24.20;;;;;;4864394;29;20037;-90
2022/06/18 10:42:28;;;;;;;1.77;0.50;;;47.00;24.90;;;;;;4908044;29;20032;-88
2022/06/18 10:45:06;;;;;;;1.23;0.60;;;46.50;25.80;;;;;;4901188;29;20044;-92
2022/06/18 10:47:40;;;;;;;4.22;0.70;;;46.40;24.70;;;;;;4910687;29;20021;-92
2022/06/18 10:50:12;;;;;;;3.10;0.80;;;46.80;24.50;;;;;;4920273;29;20036;-90
2022/06/18 10:52:38;;;;;;;2.17;0.68;;;47.20;24.50;;;;;;4904774;29;20068;-91
2022/06/18 10:55:24;;;;;;;3.35;0.88;;;47.00;24.40;;;;;;4907564;29;20041;-90
2022/06/18 10:57:50;;;;;;;4.22;0.93;;;47.10;24.60;;;;;;4888216;29;20041;-89
2022/06/18 11:00:18;;;;;;;2.75;1.00;;;46.60;24.60;;;;;;4898259;29;20156;-90
2022/06/18 11:02:46;;;;;;;8.25;0.88;;;46.20;24.80;;;;;;4890623;29;20039;-90
2022/06/18 11:05:38;;;;;;;3.72;0.70;;;45.30;25.10;;;;;;4905516;29;20115;-90
2022/06/18 11:08:27;;;;;;;3.72;0.90;;;45.00;25.80;;;;;;4916352;29;20028;-91
2022/06/18 11:10:58;;;;;;;2.42;0.80;;;44.80;26.00;;;;;;4913366;29;20028;-91
2022/06/18 11:13:30;;;;;;;4.03;1.00;;;43.80;27.00;;;;;;4905153;29;20518;-91
2022/06/18 11:16:19;;;;;;;4.53;1.00;;;43.40;26.80;;;;;;4902866;29;20032;-94
2022/06/18 11:18:55;;;;;;;5.90;1.00;;;43.40;26.70;;;;;;4906317;29;20045;-89
2022/06/18 11:21:34;;;;;;;4.85;1.63;;;43.60;27.20;;;;;;4923530;29;20036;-90
2022/06/18 11:24:12;;;;;;;2.77;0.93;;;43.80;27.20;;;;;;4887653;29;20032;-88
2022/06/18 11:27:00;;;;;;;5.22;1.30;;;43.30;27.30;;;;;;4890438;29;20296;-90
2022/06/18 11:29:26;;;;;;;6.00;1.40;;;43.00;27.30;;;;;;4908565;29;20028;-90
2022/06/18 11:31:56;;;;;;;5.00;1.15;;;43.20;27.80;;;;;;4922091;29;20111;-90
2022/06/18 11:34:26;;;;;;;5.28;1.30;;;43.10;28.00;;;;;;4898699;29;20461;-90
2022/06/18 11:36:52;;;;;;;;;;;42.70;27.60;;;;;;4918285;29;20370;-90
2022/06/18 11:39:31;;;;;;;5.85;1.48;;;42.80;27.80;;;;;;4897573;29;19926;-90
2022/06/18 11:42:14;;;;;;;7.53;1.13;;;43.00;27.20;;;;;;4893209;29;20036;-91
2022/06/18 11:44:52;;;;;;;3.53;1.00;;;43.20;27.50;;;;;;4886328;29;20032;-90
2022/06/18 11:47:28;;;;;;;3.90;1.08;;;43.20;28.00;;;;;;4914972;29;20032;-89
2022/06/18 11:50:20;;;;;;;3.10;0.90;;;43.30;27.70;;;;;;4891212;29;20033;-91
2022/06/18 11:53:11;;;;;;;2.65;1.00;;;43.00;28.40;;;;;;4906230;29;20523;-91
2022/06/18 11:55:43;;;;;;;4.93;1.15;;;42.50;27.70;;;;;;4897753;29;20047;-89
2022/06/18 11:58:33;;;;;;;3.38;1.00;;;42.00;29.00;;;;;;4894014;29;20043;-92
2022/06/18 12:01:07;;;;;;;;;;;41.70;28.90;;;;;;4914357;29;20047;-89
2022/06/18 12:03:48;;;;;;;3.15;1.13;;;41.70;28.80;;;;;;4913923;29;19945;-89
2022/06/18 12:06:19;;;;;;;7.05;1.40;;;41.50;28.40;;;;;;4912842;29;20469;-89
2022/06/18 12:08:45;;;;;;;9.85;1.40;;;41.70;28.90;;;;;;4932563;29;20032;-89
2022/06/18 12:11:20;;;;;;;5.65;1.45;;;42.00;28.50;;;;;;4908416;29;20044;-90
2022/06/18 12:13:49;;;;;;;6.50;1.20;;;41.80;29.00;;;;;;4915087;29;20028;-90
2022/06/18 12:16:36;;;;;;;7.57;1.33;;;41.40;29.60;;;;;;4914688;29;20032;-91
2022/06/18 12:19:21;;;;;;;5.72;1.55;;;41.20;29.70;;;;;;4908493;29;20492;-90
2022/06/18 12:21:54;;;;;;;4.30;1.40;;;41.20;28.90;;;;;;4916667;29;20040;-90
2022/06/18 12:24:20;;;;;;;4.72;1.42;;;41.30;28.40;;;;;;4913162;29;20036;-91
2022/06/18 12:26:58;;;;;;;5.35;1.50;;;41.20;29.30;;;;;;4921641;29;20127;-89
2022/06/18 12:29:26;;;;;;;4.47;1.48;;;41.20;28.20;;;;;;4906420;29;20063;-90
2022/06/18 12:31:59;;;;;;;8.05;1.85;;;41.30;28.30;;;;;;4898489;29;20028;-92
2022/06/18 12:34:54;;;;;;;8.15;2.10;;;41.30;28.60;;;;;;4891167;29;20056;-90
2022/06/18 12:37:29;;;;;;;3.80;1.45;;;41.40;28.40;;;;;;4915826;29;20032;-89
2022/06/18 12:40:22;;;;;;;4.90;1.38;;;41.50;28.50;;;;;;4900445;29;20108;-90
2022/06/18 12:42:59;;;;;;;4.55;1.33;;;41.70;28.60;;;;;;4924085;28;20039;-91
2022/06/18 12:45:36;;;;;;;9.60;1.73;;;41.90;28.20;;;;;;4899611;29;20425;-90
2022/06/18 12:48:19;;;;;;;6.00;1.60;;;41.90;28.80;;;;;;4929642;29;20028;-91
2022/06/18 12:51:00;;;;;;;6.47;1.85;;;42.00;28.10;;;;;;4893604;29;20182;-89
2022/06/18 12:53:48;;;;;;;7.35;1.60;;;41.80;28.70;;;;;;4921992;29;20025;-89
2022/06/18 12:56:33;;;;;;;5.47;1.80;;;41.40;28.50;;;;;;4932900;29;20081;-90
2022/06/18 12:59:22;;;;;;;5.65;1.33;;;41.20;28.10;;;;;;4900018;29;20032;-90
2022/06/18 13:02:09;;;;;;;9.23;1.77;;;40.90;29.30;;;;;;4918248;29;20051;-90
2022/06/18 13:05:08;;;;;;;14.10;2.08;;;40.90;29.80;;;;;;4906409;29;20789;-90
2022/06/18 13:08:06;;;;;;;5.45;1.83;;;41.10;29.30;;;;;;4896887;29;20038;-90
2022/06/18 13:10:57;;;;;;;10.25;2.10;;;41.30;29.20;;;;;;4901265;29;20095;-91
2022/06/18 13:13:50;;;;;;;4.75;1.58;;;41.00;29.90;;;;;;4913451;29;20065;-89
2022/06/18 13:16:38;;;;;;;5.35;1.83;;;41.10;29.90;;;;;;4918341;29;20036;-91
2022/06/18 13:19:17;;;;;;;6.03;1.88;;;41.10;29.70;;;;;;4887765;29;20027;-89
2022/06/18 13:21:44;;;;;;;12.15;2.25;;;41.20;29.70;;;;;;4918778;29;20040;-90
2022/06/18 13:29:52;;;;;;;8.68;2.08;;;41.30;29.30;;;;;;4929518;29;20564;-91
2022/06/18 13:32:35;;;;;;;5.95;2.13;;;41.20;29.40;;;;;;4929520;29;20036;-90
2022/06/18 13:35:16;;;;;;;10.75;2.33;;;41.20;30.00;;;;;;4920943;29;20035;-89